KMKG

Muskegon County Airport

Muskegon, Michigan, USA
METAR KMKG 140455Z AUTO 28010KT 10SM BKN035 OVC043 M02/M11 A3044 RMK AO2 SLP318 T10221111 400001033
Observed Flight Rules
Nov-14 @ 04:55 UTC (32 minutes ago) Visual Flight Rules
Wind Visibility Clouds
280° at 10 knots 10 miles
  • Broken at 3,500' AGL
  • Overcast at 4,300' AGL
Temperatures Readings
Current -2°C / 28°F
Dewpoint -11°C / 12°F
Humidity 51%
Altimeter 30.44" Hg
Pressure 1031.8 hPa
Elevation 191
METAR KMKG 140455Z AUTO 28010KT 10SM BKN035 OVC043 M02/M11 A3044 RMK AO2 SLP318 T10221111 400001033
Observed Flight Rules
Nov-14 @ 04:55 UTC
(32 minutes ago)
VFR
Wind Visibility
280° at 10 knots 10 miles
Clouds
  • Broken at 3,500' AGL
  • Overcast at 4,300' AGL
Temperature Dewpoint
-2°C / 28°F -11°C / 12°F
Humidity Altimeter Pressure
51% 30.44" Hg 1031.8 hPa